Waldo, AR (71770)

3:19 PM CDT on May 23, 2017 (GMT -0500)
Linda Ave | | Change Station
Active Advisory: Flood Warning

Elev 377 ft 33.28 °N, 93.23 °W | Updated 4 minutes ago

Mostly Cloudy
Mostly Cloudy
78.6 °F
Feels Like 80 °F
N
1.6
Wind Variable Wind from NNW
Gusts 4.5 mph

Today
High -- | Low -- °F
--% Chance of Precip.
Yesterday
High -- | Low -- °F
Precip. -- in
Pressure 29.78 in
Visibility 10.0 miles
Clouds Mostly Cloudy 3900 ft
Mostly Cloudy 5500 ft
Heat Index 80 °F
Dew Point 57 °F
Humidity 48%
Rainfall 0.00 in
Snow Depth Not available.
6:08 AM 8:12 PM
Waning Crescent, 6% visible
METAR KELD 231953Z AUTO 28007KT 10SM BKN039 BKN055 24/16 A2978 RMK AO2 SLP083 T02390161
Pressure 29.78 in
Visibility 10.0 miles
Clouds Mostly Cloudy 3900 ft
Mostly Cloudy 5500 ft
Heat Index 80 °F
Dew Point 57 °F
Humidity 48%
Rainfall 0.00 in
Snow Depth Not available.
6:08 AM 8:12 PM
Waning Crescent, 6% visible
METAR KELD 231953Z AUTO 28007KT 10SM BKN039 BKN055 24/16 A2978 RMK AO2 SLP083 T02390161

Get Your Daily Forecast Email!

Thanks for signing up!

Be on the lookout for a verification email in your inbox.

You'll start receiving severe weather alerts in your inbox..

×

10-Day Weather Forecast

Almanac

Astronomy

May. 23, 2017 Rise Set
Actual Time
Civil Twilight
Nautical Twilight
Astronomical Twilight
Moon
Length of Visible Light
Length of Day
Tomorrow will be .
, % of the Moon is Illuminated

Today's Extremes

State Highs State Lows

Community

WunderPhotos

Category 6

Welcome to Category 6. This is the collective home for Weather Underground's featured writeups by Dr. Jeff Masters (right), Bob Henson (left), Chris Burt, and other regular contributors.

Nearby

Air Quality

  Air Quality AQ Index Pollutant
Not available.

Snow Depth

Station Depth Elevation

Earthquake Activity

City Distance Mag. Time & Date
Minimum magnitude displayed is 2.5.

Coastal Water Temperatures

Place Temperature

Stations

Nearby Weather Stations

Station Location Temp. Windchill Dew Point Humidity Wind Precip. Elev Updated Type
                   

Watches & Warnings

Flood Warning
Issued: 10:20 AM CDT May. 23, 2017 – National Weather Service

The National Weather Service in Shreveport has issued a

* Flood Warning for
The Bayou Dorcheat near Springhill.
* From Thursday morning to Friday afternoon... or until the warning is
cancelled.
* At 10:00 am Tuesday the stage was 9.6 feet.
* Minor flooding is forecast.
* Flood stage is 11.0 feet.
* Forecast... the river is expected to rise to near flood stage
Thursday morning.


Lat... Lon 3317 9339 3300 9335 3282 9332 3282 9338 3300 9343